Time;durP1;ratioP1;P1;durP2;ratioP2;P2;SDS_P1;SDS_P2;PMS_P1;PMS_P2;Temp;Humidity;BMP_temperature;BMP_pressure;BME280_temperature;BME280_humidity;BME280_pressure;Samples;Min_cycle;Max_cycle;Signal;HPM_P1;HPM_P2
2021/10/11 05:16:43;;;;;;;;;25.50;25.50;;;;;;;;6489729;39;15244;-61
2021/10/11 05:22:48;;;;;;;;;26.00;25.00;;;;;;;;6492255;39;8925;-62
2021/10/11 05:28:51;;;;;;;;;21.50;21.00;;;;;;;;6493061;39;8867;-63
2021/10/11 05:35:02;;;;;;;;;28.67;26.67;;;;;;;;6492426;31;9057;-62
2021/10/11 05:41:07;;;;;;;;;29.00;25.25;;;;;;;;6491970;31;8940;-59
2021/10/11 05:47:12;;;;;;;;;26.00;24.25;;;;;;;;6492374;39;8882;-60
2021/10/11 05:53:14;;;;;;;;;27.00;23.25;;;;;;;;6491209;46;8931;-61
2021/10/11 05:59:17;;;;;;;;;30.00;26.75;;;;;;;;6491910;39;8866;-61
2021/10/11 06:05:19;;;;;;;;;19.75;17.25;;;;;;;;6489819;39;8992;-60
2021/10/11 06:11:21;;;;;;;;;26.00;25.00;;;;;;;;6490153;31;9026;-61
2021/10/11 06:17:26;;;;;;;;;32.00;26.00;;;;;;;;6490586;39;8987;-61
2021/10/11 06:23:29;;;;;;;;;28.50;25.75;;;;;;;;6486019;39;9001;-60
2021/10/11 06:29:34;;;;;;;;;25.00;20.25;;;;;;;;6488779;31;8897;-60
2021/10/11 06:35:36;;;;;;;;;35.50;33.25;;;;;;;;6487188;31;8953;-59
2021/10/11 06:41:38;;;;;;;;;33.50;32.75;;;;;;;;6489824;39;8916;-59
2021/10/11 06:47:40;;;;;;;;;26.75;25.25;;;;;;;;6490494;31;8990;-58
2021/10/11 06:53:43;;;;;;;;;27.50;25.75;;;;;;;;6490449;39;9556;-60
2021/10/11 06:59:45;;;;;;;;;28.50;23.50;;;;;;;;6490541;39;8834;-59
2021/10/11 07:05:47;;;;;;;;;31.00;30.00;;;;;;;;6488892;31;9043;-60
2021/10/11 07:11:51;;;;;;;;;29.25;27.50;;;;;;;;6489597;39;8934;-60
2021/10/11 07:17:54;;;;;;;;;27.50;23.75;;;;;;;;6488458;31;8921;-61
2021/10/11 07:23:56;;;;;;;;;32.50;25.50;;;;;;;;6487107;47;9058;-60
2021/10/11 07:30:00;;;;;;;;;32.75;25.75;;;;;;;;6487019;39;9095;-59
2021/10/11 07:36:03;;;;;;;;;28.25;26.50;;;;;;;;6487201;39;9068;-59
2021/10/11 07:42:07;;;;;;;;;31.25;27.00;;;;;;;;6487902;31;8908;-61
2021/10/11 07:48:11;;;;;;;;;31.00;28.00;;;;;;;;6485779;31;9601;-60
2021/10/11 07:54:18;;;;;;;;;32.25;30.25;;;;;;;;6486647;39;8945;-65
2021/10/11 08:00:20;;;;;;;;;30.75;30.75;;;;;;;;6486978;31;8899;-59
2021/10/11 08:06:23;;;;;;;;;26.25;24.50;;;;;;;;6487365;39;9017;-61
2021/10/11 08:12:26;;;;;;;;;27.50;26.00;;;;;;;;6489800;31;9076;-60
2021/10/11 08:18:28;;;;;;;;;34.75;27.75;;;;;;;;6490000;39;8916;-60
2021/10/11 08:24:33;;;;;;;;;34.25;31.75;;;;;;;;6488735;46;9017;-61
2021/10/11 08:30:38;;;;;;;;;29.50;28.00;;;;;;;;6490861;31;9091;-61
2021/10/11 08:36:42;;;;;;;;;36.00;28.75;;;;;;;;6488345;31;8926;-61
2021/10/11 08:42:45;;;;;;;;;44.75;35.75;;;;;;;;6489323;39;9760;-61
2021/10/11 08:48:50;;;;;;;;;33.25;31.00;;;;;;;;6489669;31;9629;-60
2021/10/11 08:54:54;;;;;;;;;32.00;30.25;;;;;;;;6489780;31;8891;-62
2021/10/11 09:01:05;;;;;;;;;32.75;30.25;;;;;;;;6489670;31;8991;-61
2021/10/11 09:07:09;;;;;;;;;36.25;32.00;;;;;;;;6488321;39;8916;-60
2021/10/11 09:13:27;;;;;;;;;25.00;20.00;;;;;;;;6488630;39;8949;-60
2021/10/11 09:19:35;;;;;;;;;26.50;25.50;;;;;;;;6487887;31;8876;-60
2021/10/11 09:25:40;;;;;;;;;32.50;29.25;;;;;;;;6488142;39;8937;-62
2021/10/11 09:31:48;;;;;;;;;32.50;29.75;;;;;;;;6486527;39;8995;-61
2021/10/11 09:37:51;;;;;;;;;27.00;25.25;;;;;;;;6486373;31;9118;-60
2021/10/11 09:43:54;;;;;;;;;29.50;27.25;;;;;;;;6484308;46;9004;-59
2021/10/11 09:49:57;;;;;;;;;24.50;24.50;;;;;;;;6487522;39;9676;-59
2021/10/11 09:56:02;;;;;;;;;23.50;23.50;;;;;;;;6487874;39;8961;-59
2021/10/11 10:02:05;;;;;;;;;25.25;24.25;;;;;;;;6488666;39;9144;-62
2021/10/11 10:08:18;;;;;;;;;27.75;26.50;;;;;;;;6487668;39;9037;-60
2021/10/11 10:14:26;;;;;;;;;30.25;28.00;;;;;;;;6487841;46;9063;-61
2021/10/11 10:20:28;;;;;;;;;28.67;24.67;;;;;;;;6488048;39;9383;-61
2021/10/11 10:26:35;;;;;;;;;30.67;29.00;;;;;;;;6488308;39;9604;-62
2021/10/11 10:32:38;;;;;;;;;22.50;22.50;;;;;;;;6487523;39;9954;-62
2021/10/11 10:38:40;;;;;;;;;31.50;28.75;;;;;;;;6485791;39;8894;-60
2021/10/11 10:44:46;;;;;;;;;32.75;28.50;;;;;;;;6487482;39;8850;-60
2021/10/11 10:50:49;;;;;;;;;32.25;27.50;;;;;;;;6488318;39;8896;-61
2021/10/11 10:56:55;;;;;;;;;30.50;27.00;;;;;;;;6487344;46;9035;-60
2021/10/11 11:03:00;;;;;;;;;32.00;28.25;;;;;;;;6486884;39;8958;-60
2021/10/11 11:09:05;;;;;;;;;30.67;26.33;;;;;;;;6485798;31;9019;-61
2021/10/11 11:15:22;;;;;;;;;29.67;27.33;;;;;;;;6488229;31;8978;-61
2021/10/11 11:21:27;;;;;;;;;25.00;25.00;;;;;;;;6488363;31;8913;-61
2021/10/11 11:27:35;;;;;;;;;27.67;25.67;;;;;;;;6487298;39;8877;-59
2021/10/11 11:33:50;;;;;;;;;26.67;23.00;;;;;;;;6487287;39;8969;-61
2021/10/11 11:40:04;;;;;;;;;23.67;20.67;;;;;;;;6487156;47;8873;-61
2021/10/11 11:46:07;;;;;;;;;25.67;24.33;;;;;;;;6488891;46;8878;-60
2021/10/11 11:52:14;;;;;;;;;28.00;25.67;;;;;;;;6488497;39;8934;-61
2021/10/11 11:58:26;;;;;;;;;27.00;23.67;;;;;;;;6488780;31;8926;-62
2021/10/11 12:04:30;;;;;;;;;21.33;19.67;;;;;;;;6489223;39;9011;-61
2021/10/11 12:10:37;;;;;;;;;26.33;24.33;;;;;;;;6488215;39;8913;-62
2021/10/11 12:16:39;;;;;;;;;31.50;29.75;;;;;;;;6489408;39;9553;-63
2021/10/11 12:22:42;;;;;;;;;27.25;22.75;;;;;;;;6488713;46;8926;-63
2021/10/11 12:29:15;;;;;;;;;27.50;27.25;;;;;;;;6489389;31;8905;-61
2021/10/11 12:35:22;;;;;;;;;26.00;22.00;;;;;;;;6489277;31;8930;-60
2021/10/11 12:41:30;;;;;;;;;29.25;25.00;;;;;;;;6488617;39;8921;-60
2021/10/11 12:47:34;;;;;;;;;27.75;25.25;;;;;;;;6488575;39;8971;-61
2021/10/11 12:53:38;;;;;;;;;22.67;20.67;;;;;;;;6486324;46;8948;-61
2021/10/11 12:59:40;;;;;;;;;22.00;20.67;;;;;;;;6487517;39;8917;-60
2021/10/11 13:05:43;;;;;;;;;23.75;22.25;;;;;;;;6488968;31;8896;-61
2021/10/11 13:11:47;;;;;;;;;28.00;24.33;;;;;;;;6489845;39;8968;-61
2021/10/11 13:17:55;;;;;;;;;23.50;23.50;;;;;;;;6488884;46;9014;-63
2021/10/11 13:23:57;;;;;;;;;26.50;24.75;;;;;;;;6488755;39;8845;-61
2021/10/11 14:27:40;;;;;;;;;28.00;27.25;;;;;;;;6487690;39;8972;-61
2021/10/11 16:02:45;;;;;;;;;40.00;38.50;;;;;;;;6485809;47;8918;-63
2021/10/11 16:08:53;;;;;;;;;34.25;28.50;;;;;;;;6485902;47;8863;-62
2021/10/11 16:14:55;;;;;;;;;41.75;39.25;;;;;;;;6485886;47;8921;-64
2021/10/11 16:21:18;;;;;;;;;44.00;40.25;;;;;;;;6487006;31;8915;-61
2021/10/11 16:27:20;;;;;;;;;40.50;39.25;;;;;;;;6487383;31;8993;-62
2021/10/11 16:33:24;;;;;;;;;48.75;40.75;;;;;;;;6488590;31;8886;-62
2021/10/11 16:39:30;;;;;;;;;52.25;43.75;;;;;;;;6489404;31;8945;-61
2021/10/11 16:45:32;;;;;;;;;50.00;41.75;;;;;;;;6489633;39;9928;-63
2021/10/11 16:51:34;;;;;;;;;52.75;43.00;;;;;;;;6489900;39;8929;-62
2021/10/11 16:57:58;;;;;;;;;51.25;40.50;;;;;;;;6488853;31;8957;-62
2021/10/11 17:04:03;;;;;;;;;59.75;45.25;;;;;;;;6488974;31;8930;-60
2021/10/11 17:10:07;;;;;;;;;51.75;43.25;;;;;;;;6489280;31;8881;-61
2021/10/11 17:16:10;;;;;;;;;57.75;46.00;;;;;;;;6488950;39;9092;-63
2021/10/11 17:22:31;;;;;;;;;47.00;41.75;;;;;;;;6489433;39;8854;-62
2021/10/11 17:28:36;;;;;;;;;53.00;45.75;;;;;;;;6489249;39;9061;-61
2021/10/11 17:34:40;;;;;;;;;56.50;45.00;;;;;;;;6489619;39;9470;-62
2021/10/11 17:40:42;;;;;;;;;49.25;42.25;;;;;;;;6489481;39;8965;-63
2021/10/11 17:46:49;;;;;;;;;51.75;42.00;;;;;;;;6488801;39;8878;-61
2021/10/11 17:52:55;;;;;;;;;48.25;41.75;;;;;;;;6489185;39;8854;-61
2021/10/11 17:59:04;;;;;;;;;55.25;44.75;;;;;;;;6488255;46;8870;-63
2021/10/11 18:05:07;;;;;;;;;56.75;48.00;;;;;;;;6488161;46;8894;-62
2021/10/11 18:11:10;;;;;;;;;54.50;45.50;;;;;;;;6488765;31;8995;-61
2021/10/11 18:17:12;;;;;;;;;52.25;44.50;;;;;;;;6489095;39;8914;-62
2021/10/11 18:23:17;;;;;;;;;52.00;42.75;;;;;;;;6489716;39;8850;-61
2021/10/11 18:29:23;;;;;;;;;54.75;46.50;;;;;;;;6488363;35;8874;-61
2021/10/11 18:35:25;;;;;;;;;50.75;44.00;;;;;;;;6488875;46;9004;-62
2021/10/11 18:41:28;;;;;;;;;52.50;44.25;;;;;;;;6488582;31;8871;-62
2021/10/11 18:47:31;;;;;;;;;53.25;44.50;;;;;;;;6489042;39;8890;-61
2021/10/11 18:53:36;;;;;;;;;56.00;46.00;;;;;;;;6489295;39;9556;-62
2021/10/11 18:59:38;;;;;;;;;60.50;46.00;;;;;;;;6489004;31;8984;-64
2021/10/11 19:05:41;;;;;;;;;51.00;42.00;;;;;;;;6489016;39;8838;-61
2021/10/11 19:11:43;;;;;;;;;51.75;41.75;;;;;;;;6488907;39;8930;-61
2021/10/11 19:17:47;;;;;;;;;50.75;43.00;;;;;;;;6487984;39;8867;-62
2021/10/11 19:23:51;;;;;;;;;51.50;44.25;;;;;;;;6488433;39;9049;-62
2021/10/11 19:29:56;;;;;;;;;51.75;43.50;;;;;;;;6487932;47;8870;-61
2021/10/11 19:35:59;;;;;;;;;50.75;44.75;;;;;;;;6487399;31;8968;-62
2021/10/11 19:42:03;;;;;;;;;48.50;42.50;;;;;;;;6487977;39;8885;-61
2021/10/11 19:48:07;;;;;;;;;49.50;43.00;;;;;;;;6488186;39;8898;-62
2021/10/11 19:54:14;;;;;;;;;42.50;40.50;;;;;;;;6489085;39;8914;-62
2021/10/11 20:00:17;;;;;;;;;55.50;45.75;;;;;;;;6487969;39;8992;-61
2021/10/11 20:06:20;;;;;;;;;59.75;46.75;;;;;;;;6488770;39;8925;-62
2021/10/11 20:12:27;;;;;;;;;52.50;43.00;;;;;;;;6490226;39;8949;-61
2021/10/11 20:18:30;;;;;;;;;52.50;45.00;;;;;;;;6490167;39;8851;-61
2021/10/11 20:24:34;;;;;;;;;52.50;44.75;;;;;;;;6490733;31;8858;-62
2021/10/11 20:30:37;;;;;;;;;59.00;47.00;;;;;;;;6489676;31;8863;-61
2021/10/11 20:36:40;;;;;;;;;56.50;45.50;;;;;;;;6490051;39;8925;-61
2021/10/11 20:42:43;;;;;;;;;38.75;29.75;;;;;;;;6490371;39;8867;-61
2021/10/11 20:48:45;;;;;;;;;53.75;45.00;;;;;;;;6489899;31;8917;-62
2021/10/11 20:54:48;;;;;;;;;50.50;43.75;;;;;;;;6489794;46;8870;-62
2021/10/11 21:00:50;;;;;;;;;60.50;48.50;;;;;;;;6489205;46;8926;-61
2021/10/11 21:06:53;;;;;;;;;52.50;45.50;;;;;;;;6490552;31;8897;-61
2021/10/11 21:12:56;;;;;;;;;45.50;41.50;;;;;;;;6489842;39;8966;-61
2021/10/11 21:19:00;;;;;;;;;55.75;44.75;;;;;;;;6488688;39;9041;-62
2021/10/11 21:25:06;;;;;;;;;55.75;46.50;;;;;;;;6489507;39;9028;-61
2021/10/11 21:31:08;;;;;;;;;61.50;48.50;;;;;;;;6488654;46;8960;-63
2021/10/11 21:37:10;;;;;;;;;58.50;47.50;;;;;;;;6489668;31;8906;-62
2021/10/11 21:43:15;;;;;;;;;53.50;46.00;;;;;;;;6489915;31;8847;-62
2021/10/11 21:49:18;;;;;;;;;54.00;45.00;;;;;;;;6488085;46;8852;-61
2021/10/11 21:55:20;;;;;;;;;50.25;43.75;;;;;;;;6490249;31;8891;-63
2021/10/11 22:01:22;;;;;;;;;51.25;40.00;;;;;;;;6489498;39;8914;-61
2021/10/11 22:07:26;;;;;;;;;60.25;47.00;;;;;;;;6488862;31;9638;-61
2021/10/11 22:13:30;;;;;;;;;41.75;39.25;;;;;;;;6488954;31;8907;-63
2021/10/11 22:19:33;;;;;;;;;51.75;44.25;;;;;;;;6488994;39;8977;-62
2021/10/11 22:25:37;;;;;;;;;47.25;42.00;;;;;;;;6488655;46;8894;-61
2021/10/11 22:31:39;;;;;;;;;54.50;43.00;;;;;;;;6488843;39;8976;-61
2021/10/11 22:37:43;;;;;;;;;54.75;45.75;;;;;;;;6488748;31;8976;-63
2021/10/11 22:43:45;;;;;;;;;58.25;47.00;;;;;;;;6488149;31;8866;-61
2021/10/11 22:49:47;;;;;;;;;48.00;41.00;;;;;;;;6488662;31;9490;-62
2021/10/11 22:55:51;;;;;;;;;54.75;44.75;;;;;;;;6488577;39;8882;-60
2021/10/11 23:01:54;;;;;;;;;56.75;47.00;;;;;;;;6487919;31;8918;-61
2021/10/11 23:07:57;;;;;;;;;52.00;45.75;;;;;;;;6493420;31;8912;-64
2021/10/11 23:13:59;;;;;;;;;43.25;40.50;;;;;;;;6488248;46;8982;-62
2021/10/11 23:20:08;;;;;;;;;48.25;44.00;;;;;;;;6488066;39;8892;-62
2021/10/11 23:26:11;;;;;;;;;45.25;42.00;;;;;;;;6487602;39;8898;-62
2021/10/11 23:32:13;;;;;;;;;41.75;39.25;;;;;;;;6487079;39;8944;-62
2021/10/11 23:38:15;;;;;;;;;45.25;41.75;;;;;;;;6488147;46;8902;-63
2021/10/11 23:44:18;;;;;;;;;47.00;40.75;;;;;;;;6490078;39;8944;-62
2021/10/11 23:50:20;;;;;;;;;50.25;42.50;;;;;;;;6489919;39;8874;-61
2021/10/11 23:56:22;;;;;;;;;48.50;42.25;;;;;;;;6489984;31;9000;-62
